sensor_id;sensor_type;location;lat;lon;timestamp;P1;durP1;ratioP1;P2;durP2;ratioP2
54241;SDS011;40156;51.080;17.082;2023-02-01T00:01:34;1.05;;;0.82;;
54241;SDS011;40156;51.080;17.082;2023-02-01T00:04:01;1.33;;;0.45;;
54241;SDS011;40156;51.080;17.082;2023-02-01T00:06:29;0.85;;;0.40;;
54241;SDS011;40156;51.080;17.082;2023-02-01T00:08:56;1.90;;;0.60;;
54241;SDS011;40156;51.080;17.082;2023-02-01T00:11:24;2.08;;;0.43;;
54241;SDS011;40156;51.080;17.082;2023-02-01T00:13:52;0.43;;;0.40;;
54241;SDS011;40156;51.080;17.082;2023-02-01T00:16:27;5.07;;;0.40;;
54241;SDS011;40156;51.080;17.082;2023-02-01T00:19:02;4.95;;;0.57;;
54241;SDS011;40156;51.080;17.082;2023-02-01T00:21:30;4.35;;;1.00;;
54241;SDS011;40156;51.080;17.082;2023-02-01T00:23:58;4.13;;;0.95;;
54241;SDS011;40156;51.080;17.082;2023-02-01T00:26:33;4.03;;;0.63;;
54241;SDS011;40156;51.080;17.082;2023-02-01T00:29:01;2.13;;;0.60;;
54241;SDS011;40156;51.080;17.082;2023-02-01T00:31:29;2.67;;;1.00;;
54241;SDS011;40156;51.080;17.082;2023-02-01T00:33:57;2.20;;;0.60;;
54241;SDS011;40156;51.080;17.082;2023-02-01T00:36:25;2.58;;;0.50;;
54241;SDS011;40156;51.080;17.082;2023-02-01T00:38:53;0.95;;;0.47;;
54241;SDS011;40156;51.080;17.082;2023-02-01T00:41:21;2.72;;;0.57;;
54241;SDS011;40156;51.080;17.082;2023-02-01T00:43:49;3.05;;;0.70;;
54241;SDS011;40156;51.080;17.082;2023-02-01T00:46:17;3.55;;;0.73;;
54241;SDS011;40156;51.080;17.082;2023-02-01T00:48:45;3.60;;;0.73;;
54241;SDS011;40156;51.080;17.082;2023-02-01T00:51:18;2.03;;;0.70;;
54241;SDS011;40156;51.080;17.082;2023-02-01T00:53:46;2.92;;;0.80;;
54241;SDS011;40156;51.080;17.082;2023-02-01T00:56:14;2.47;;;0.70;;
54241;SDS011;40156;51.080;17.082;2023-02-01T00:58:41;4.22;;;1.17;;
54241;SDS011;40156;51.080;17.082;2023-02-01T01:03:43;0.80;;;0.60;;
54241;SDS011;40156;51.080;17.082;2023-02-01T01:06:12;3.47;;;0.95;;
54241;SDS011;40156;51.080;17.082;2023-02-01T01:08:40;7.20;;;1.02;;
54241;SDS011;40156;51.080;17.082;2023-02-01T01:13:35;5.07;;;1.30;;
54241;SDS011;40156;51.080;17.082;2023-02-01T01:16:04;6.50;;;1.58;;
54241;SDS011;40156;51.080;17.082;2023-02-01T01:18:32;5.05;;;1.42;;
54241;SDS011;40156;51.080;17.082;2023-02-01T01:21:00;5.47;;;1.10;;
54241;SDS011;40156;51.080;17.082;2023-02-01T01:23:28;6.43;;;1.30;;
54241;SDS011;40156;51.080;17.082;2023-02-01T01:25:55;3.75;;;1.02;;
54241;SDS011;40156;51.080;17.082;2023-02-01T01:28:23;2.63;;;0.85;;
54241;SDS011;40156;51.080;17.082;2023-02-01T01:30:50;3.90;;;1.15;;
54241;SDS011;40156;51.080;17.082;2023-02-01T01:33:18;2.78;;;0.95;;
54241;SDS011;40156;51.080;17.082;2023-02-01T01:36:05;7.82;;;1.27;;
54241;SDS011;40156;51.080;17.082;2023-02-01T01:38:33;2.10;;;0.50;;
54241;SDS011;40156;51.080;17.082;2023-02-01T01:41:00;4.63;;;0.90;;
54241;SDS011;40156;51.080;17.082;2023-02-01T01:43:44;3.90;;;0.70;;
54241;SDS011;40156;51.080;17.082;2023-02-01T01:46:20;3.17;;;0.68;;
54241;SDS011;40156;51.080;17.082;2023-02-01T01:48:48;3.72;;;1.25;;
54241;SDS011;40156;51.080;17.082;2023-02-01T01:51:17;1.83;;;0.52;;
54241;SDS011;40156;51.080;17.082;2023-02-01T01:53:49;2.85;;;0.93;;
54241;SDS011;40156;51.080;17.082;2023-02-01T01:56:19;4.28;;;0.65;;
54241;SDS011;40156;51.080;17.082;2023-02-01T01:58:46;1.23;;;0.50;;
54241;SDS011;40156;51.080;17.082;2023-02-01T02:01:14;6.57;;;0.75;;
54241;SDS011;40156;51.080;17.082;2023-02-01T02:03:42;1.50;;;0.73;;
54241;SDS011;40156;51.080;17.082;2023-02-01T02:06:22;2.92;;;1.13;;
54241;SDS011;40156;51.080;17.082;2023-02-01T02:08:53;2.08;;;1.15;;
54241;SDS011;40156;51.080;17.082;2023-02-01T02:11:21;4.18;;;1.48;;
54241;SDS011;40156;51.080;17.082;2023-02-01T02:13:50;3.47;;;1.00;;
54241;SDS011;40156;51.080;17.082;2023-02-01T02:16:31;2.60;;;1.02;;
54241;SDS011;40156;51.080;17.082;2023-02-01T02:29:42;6.05;;;1.63;;
54241;SDS011;40156;51.080;17.082;2023-02-01T02:37:20;8.43;;;2.10;;
54241;SDS011;40156;51.080;17.082;2023-02-01T02:39:53;4.63;;;1.80;;
54241;SDS011;40156;51.080;17.082;2023-02-01T02:42:27;6.25;;;1.55;;
54241;SDS011;40156;51.080;17.082;2023-02-01T02:52:47;5.25;;;2.05;;
54241;SDS011;40156;51.080;17.082;2023-02-01T02:55:17;8.10;;;1.70;;
54241;SDS011;40156;51.080;17.082;2023-02-01T02:57:45;9.07;;;1.98;;
54241;SDS011;40156;51.080;17.082;2023-02-01T03:00:17;7.55;;;1.50;;
54241;SDS011;40156;51.080;17.082;2023-02-01T03:02:46;6.93;;;1.58;;
54241;SDS011;40156;51.080;17.082;2023-02-01T03:05:14;4.72;;;1.15;;
54241;SDS011;40156;51.080;17.082;2023-02-01T03:10:16;4.20;;;1.25;;
54241;SDS011;40156;51.080;17.082;2023-02-01T03:12:46;6.60;;;1.65;;
54241;SDS011;40156;51.080;17.082;2023-02-01T03:15:13;3.97;;;1.50;;
54241;SDS011;40156;51.080;17.082;2023-02-01T03:17:41;5.30;;;1.40;;
54241;SDS011;40156;51.080;17.082;2023-02-01T03:23:42;7.07;;;1.83;;
54241;SDS011;40156;51.080;17.082;2023-02-01T03:26:11;4.22;;;1.55;;
54241;SDS011;40156;51.080;17.082;2023-02-01T03:28:42;11.82;;;1.88;;
54241;SDS011;40156;51.080;17.082;2023-02-01T03:31:10;7.07;;;1.30;;
54241;SDS011;40156;51.080;17.082;2023-02-01T03:33:38;6.50;;;1.33;;
54241;SDS011;40156;51.080;17.082;2023-02-01T03:43:33;5.72;;;1.48;;
54241;SDS011;40156;51.080;17.082;2023-02-01T03:46:03;9.07;;;2.10;;
54241;SDS011;40156;51.080;17.082;2023-02-01T03:48:32;10.30;;;2.05;;
54241;SDS011;40156;51.080;17.082;2023-02-01T03:51:01;8.07;;;3.78;;
54241;SDS011;40156;51.080;17.082;2023-02-01T03:53:30;9.80;;;2.03;;
54241;SDS011;40156;51.080;17.082;2023-02-01T03:55:59;4.47;;;1.35;;
54241;SDS011;40156;51.080;17.082;2023-02-01T03:58:26;7.28;;;2.10;;
54241;SDS011;40156;51.080;17.082;2023-02-01T04:00:56;5.22;;;1.58;;
54241;SDS011;40156;51.080;17.082;2023-02-01T04:03:24;3.25;;;1.33;;
54241;SDS011;40156;51.080;17.082;2023-02-01T04:05:53;6.20;;;1.30;;
54241;SDS011;40156;51.080;17.082;2023-02-01T04:08:20;6.63;;;1.45;;
54241;SDS011;40156;51.080;17.082;2023-02-01T04:10:48;10.43;;;1.98;;
54241;SDS011;40156;51.080;17.082;2023-02-01T04:13:16;6.32;;;1.60;;
54241;SDS011;40156;51.080;17.082;2023-02-01T04:15:43;6.70;;;1.67;;
54241;SDS011;40156;51.080;17.082;2023-02-01T04:18:11;12.10;;;1.98;;
54241;SDS011;40156;51.080;17.082;2023-02-01T04:20:39;9.07;;;1.90;;
54241;SDS011;40156;51.080;17.082;2023-02-01T04:23:06;10.00;;;2.08;;
54241;SDS011;40156;51.080;17.082;2023-02-01T04:25:34;10.95;;;2.00;;
54241;SDS011;40156;51.080;17.082;2023-02-01T04:28:01;9.45;;;2.13;;
54241;SDS011;40156;51.080;17.082;2023-02-01T04:30:29;9.95;;;2.03;;
54241;SDS011;40156;51.080;17.082;2023-02-01T04:32:56;5.57;;;2.33;;
54241;SDS011;40156;51.080;17.082;2023-02-01T04:35:24;10.52;;;2.33;;
54241;SDS011;40156;51.080;17.082;2023-02-01T04:37:51;24.77;;;7.32;;
54241;SDS011;40156;51.080;17.082;2023-02-01T04:40:19;6.22;;;1.42;;
54241;SDS011;40156;51.080;17.082;2023-02-01T04:42:47;6.43;;;1.48;;
54241;SDS011;40156;51.080;17.082;2023-02-01T04:45:15;8.23;;;2.47;;
54241;SDS011;40156;51.080;17.082;2023-02-01T04:47:42;6.60;;;1.80;;
54241;SDS011;40156;51.080;17.082;2023-02-01T04:50:10;9.52;;;2.25;;
54241;SDS011;40156;51.080;17.082;2023-02-01T04:52:37;5.55;;;1.98;;
54241;SDS011;40156;51.080;17.082;2023-02-01T04:55:05;8.57;;;2.00;;
54241;SDS011;40156;51.080;17.082;2023-02-01T04:57:33;6.35;;;1.70;;
54241;SDS011;40156;51.080;17.082;2023-02-01T05:00:00;7.75;;;1.92;;
54241;SDS011;40156;51.080;17.082;2023-02-01T05:02:28;7.88;;;1.60;;
54241;SDS011;40156;51.080;17.082;2023-02-01T05:04:56;9.30;;;2.25;;
54241;SDS011;40156;51.080;17.082;2023-02-01T05:07:23;7.93;;;1.90;;
54241;SDS011;40156;51.080;17.082;2023-02-01T05:09:51;9.25;;;1.80;;
54241;SDS011;40156;51.080;17.082;2023-02-01T05:12:18;5.70;;;2.03;;
54241;SDS011;40156;51.080;17.082;2023-02-01T05:14:46;7.35;;;1.90;;
54241;SDS011;40156;51.080;17.082;2023-02-01T05:17:13;6.75;;;1.60;;
54241;SDS011;40156;51.080;17.082;2023-02-01T05:19:41;6.85;;;1.88;;
54241;SDS011;40156;51.080;17.082;2023-02-01T05:22:08;8.43;;;1.88;;
54241;SDS011;40156;51.080;17.082;2023-02-01T05:24:36;6.03;;;1.83;;
54241;SDS011;40156;51.080;17.082;2023-02-01T05:27:04;7.57;;;1.70;;
54241;SDS011;40156;51.080;17.082;2023-02-01T05:29:32;8.98;;;1.38;;
54241;SDS011;40156;51.080;17.082;2023-02-01T05:31:59;3.35;;;1.30;;
54241;SDS011;40156;51.080;17.082;2023-02-01T05:34:41;6.40;;;1.48;;
54241;SDS011;40156;51.080;17.082;2023-02-01T05:37:09;5.38;;;1.38;;
54241;SDS011;40156;51.080;17.082;2023-02-01T05:39:36;6.32;;;1.75;;
54241;SDS011;40156;51.080;17.082;2023-02-01T05:42:04;6.38;;;1.88;;
54241;SDS011;40156;51.080;17.082;2023-02-01T05:44:32;6.78;;;1.60;;
54241;SDS011;40156;51.080;17.082;2023-02-01T05:46:59;5.50;;;1.65;;
54241;SDS011;40156;51.080;17.082;2023-02-01T05:49:27;7.20;;;2.00;;
54241;SDS011;40156;51.080;17.082;2023-02-01T05:51:54;8.20;;;2.13;;
54241;SDS011;40156;51.080;17.082;2023-02-01T05:54:22;5.63;;;2.25;;
54241;SDS011;40156;51.080;17.082;2023-02-01T05:56:49;9.63;;;1.65;;
54241;SDS011;40156;51.080;17.082;2023-02-01T05:59:17;5.88;;;1.38;;
54241;SDS011;40156;51.080;17.082;2023-02-01T06:05:17;6.03;;;1.42;;
54241;SDS011;40156;51.080;17.082;2023-02-01T06:07:44;6.10;;;1.30;;
54241;SDS011;40156;51.080;17.082;2023-02-01T06:10:12;8.40;;;1.58;;
54241;SDS011;40156;51.080;17.082;2023-02-01T06:12:40;4.30;;;1.40;;
54241;SDS011;40156;51.080;17.082;2023-02-01T06:15:07;16.33;;;2.55;;
54241;SDS011;40156;51.080;17.082;2023-02-01T06:17:35;25.13;;;9.50;;
54241;SDS011;40156;51.080;17.082;2023-02-01T06:20:03;9.63;;;3.00;;
54241;SDS011;40156;51.080;17.082;2023-02-01T06:22:30;6.28;;;1.85;;
54241;SDS011;40156;51.080;17.082;2023-02-01T06:24:58;5.07;;;1.77;;
54241;SDS011;40156;51.080;17.082;2023-02-01T06:27:26;8.57;;;1.50;;
54241;SDS011;40156;51.080;17.082;2023-02-01T06:29:53;7.03;;;1.63;;
54241;SDS011;40156;51.080;17.082;2023-02-01T06:36:22;3.42;;;0.90;;
54241;SDS011;40156;51.080;17.082;2023-02-01T06:38:50;9.40;;;1.45;;
54241;SDS011;40156;51.080;17.082;2023-02-01T06:41:17;7.97;;;1.77;;
54241;SDS011;40156;51.080;17.082;2023-02-01T06:43:45;6.10;;;1.55;;
54241;SDS011;40156;51.080;17.082;2023-02-01T06:46:13;6.78;;;1.50;;
54241;SDS011;40156;51.080;17.082;2023-02-01T06:52:13;6.60;;;1.67;;
54241;SDS011;40156;51.080;17.082;2023-02-01T06:54:40;4.38;;;1.60;;
54241;SDS011;40156;51.080;17.082;2023-02-01T06:57:08;6.20;;;2.33;;
54241;SDS011;40156;51.080;17.082;2023-02-01T06:59:36;7.20;;;1.75;;
54241;SDS011;40156;51.080;17.082;2023-02-01T07:05:36;11.90;;;2.55;;
54241;SDS011;40156;51.080;17.082;2023-02-01T07:08:04;7.88;;;2.00;;
54241;SDS011;40156;51.080;17.082;2023-02-01T07:10:31;4.75;;;2.35;;
54241;SDS011;40156;51.080;17.082;2023-02-01T07:12:59;10.02;;;2.83;;
54241;SDS011;40156;51.080;17.082;2023-02-01T07:15:26;9.48;;;2.33;;
54241;SDS011;40156;51.080;17.082;2023-02-01T07:17:54;13.13;;;2.47;;
54241;SDS011;40156;51.080;17.082;2023-02-01T07:20:22;8.75;;;1.60;;
54241;SDS011;40156;51.080;17.082;2023-02-01T07:22:54;7.07;;;2.67;;
54241;SDS011;40156;51.080;17.082;2023-02-01T07:25:22;7.50;;;2.67;;
54241;SDS011;40156;51.080;17.082;2023-02-01T07:31:12;12.55;;;3.30;;
54241;SDS011;40156;51.080;17.082;2023-02-01T07:33:41;7.50;;;3.60;;
54241;SDS011;40156;51.080;17.082;2023-02-01T07:36:11;13.30;;;3.42;;
54241;SDS011;40156;51.080;17.082;2023-02-01T07:38:39;9.80;;;2.28;;
54241;SDS011;40156;51.080;17.082;2023-02-01T07:41:07;6.72;;;1.38;;
54241;SDS011;40156;51.080;17.082;2023-02-01T07:43:35;5.95;;;1.73;;
54241;SDS011;40156;51.080;17.082;2023-02-01T07:46:03;4.50;;;1.50;;
54241;SDS011;40156;51.080;17.082;2023-02-01T07:48:31;6.05;;;2.00;;
54241;SDS011;40156;51.080;17.082;2023-02-01T07:51:03;7.43;;;1.42;;
54241;SDS011;40156;51.080;17.082;2023-02-01T07:53:32;5.88;;;1.50;;
54241;SDS011;40156;51.080;17.082;2023-02-01T07:56:00;7.03;;;2.13;;
54241;SDS011;40156;51.080;17.082;2023-02-01T07:58:28;9.52;;;2.05;;
54241;SDS011;40156;51.080;17.082;2023-02-01T08:00:56;3.65;;;1.40;;
54241;SDS011;40156;51.080;17.082;2023-02-01T08:06:56;5.30;;;1.90;;
54241;SDS011;40156;51.080;17.082;2023-02-01T08:09:23;5.00;;;1.67;;
54241;SDS011;40156;51.080;17.082;2023-02-01T08:11:51;7.82;;;2.40;;
54241;SDS011;40156;51.080;17.082;2023-02-01T08:14:18;7.28;;;2.85;;
54241;SDS011;40156;51.080;17.082;2023-02-01T08:16:46;4.22;;;1.92;;
54241;SDS011;40156;51.080;17.082;2023-02-01T08:19:14;12.75;;;2.60;;
54241;SDS011;40156;51.080;17.082;2023-02-01T08:21:41;10.75;;;2.40;;
54241;SDS011;40156;51.080;17.082;2023-02-01T08:24:09;7.07;;;1.70;;
54241;SDS011;40156;51.080;17.082;2023-02-01T08:26:37;16.90;;;2.33;;
54241;SDS011;40156;51.080;17.082;2023-02-01T08:29:05;4.68;;;2.08;;
54241;SDS011;40156;51.080;17.082;2023-02-01T08:31:33;6.93;;;1.80;;
54241;SDS011;40156;51.080;17.082;2023-02-01T08:34:02;10.73;;;2.35;;
54241;SDS011;40156;51.080;17.082;2023-02-01T08:36:30;12.43;;;2.50;;
54241;SDS011;40156;51.080;17.082;2023-02-01T08:38:58;7.13;;;2.47;;
54241;SDS011;40156;51.080;17.082;2023-02-01T08:41:26;14.40;;;3.30;;
54241;SDS011;40156;51.080;17.082;2023-02-01T08:43:55;11.57;;;3.03;;
54241;SDS011;40156;51.080;17.082;2023-02-01T08:46:22;6.05;;;1.90;;
54241;SDS011;40156;51.080;17.082;2023-02-01T08:48:50;4.68;;;1.42;;
54241;SDS011;40156;51.080;17.082;2023-02-01T08:51:19;9.05;;;1.90;;
54241;SDS011;40156;51.080;17.082;2023-02-01T08:53:47;6.47;;;1.83;;
54241;SDS011;40156;51.080;17.082;2023-02-01T08:56:15;7.15;;;1.60;;
54241;SDS011;40156;51.080;17.082;2023-02-01T08:58:43;12.25;;;2.30;;
54241;SDS011;40156;51.080;17.082;2023-02-01T09:01:14;9.23;;;1.98;;
54241;SDS011;40156;51.080;17.082;2023-02-01T09:03:42;5.75;;;1.83;;
54241;SDS011;40156;51.080;17.082;2023-02-01T09:06:11;9.05;;;1.88;;
54241;SDS011;40156;51.080;17.082;2023-02-01T09:08:39;8.38;;;2.28;;
54241;SDS011;40156;51.080;17.082;2023-02-01T09:11:09;9.52;;;2.10;;
54241;SDS011;40156;51.080;17.082;2023-02-01T09:13:37;5.55;;;1.40;;
54241;SDS011;40156;51.080;17.082;2023-02-01T09:16:05;8.80;;;1.63;;
54241;SDS011;40156;51.080;17.082;2023-02-01T09:18:33;7.68;;;2.08;;
54241;SDS011;40156;51.080;17.082;2023-02-01T09:21:04;8.85;;;2.33;;
54241;SDS011;40156;51.080;17.082;2023-02-01T09:23:32;8.07;;;2.50;;
54241;SDS011;40156;51.080;17.082;2023-02-01T09:26:00;9.57;;;3.35;;
54241;SDS011;40156;51.080;17.082;2023-02-01T09:28:27;12.25;;;3.42;;
54241;SDS011;40156;51.080;17.082;2023-02-01T09:30:58;14.98;;;3.72;;
54241;SDS011;40156;51.080;17.082;2023-02-01T09:33:26;10.55;;;4.22;;
54241;SDS011;40156;51.080;17.082;2023-02-01T09:36:01;9.65;;;2.55;;
54241;SDS011;40156;51.080;17.082;2023-02-01T09:38:29;5.00;;;2.08;;
54241;SDS011;40156;51.080;17.082;2023-02-01T09:40:58;5.40;;;1.88;;
54241;SDS011;40156;51.080;17.082;2023-02-01T09:43:41;5.15;;;1.63;;
54241;SDS011;40156;51.080;17.082;2023-02-01T09:46:24;4.80;;;2.00;;
54241;SDS011;40156;51.080;17.082;2023-02-01T09:48:54;3.55;;;1.50;;
54241;SDS011;40156;51.080;17.082;2023-02-01T09:51:26;6.35;;;2.08;;
54241;SDS011;40156;51.080;17.082;2023-02-01T09:54:04;5.05;;;2.13;;
54241;SDS011;40156;51.080;17.082;2023-02-01T09:56:54;5.43;;;2.65;;
54241;SDS011;40156;51.080;17.082;2023-02-01T10:01:47;3.05;;;1.60;;
54241;SDS011;40156;51.080;17.082;2023-02-01T10:04:15;4.32;;;1.30;;
54241;SDS011;40156;51.080;17.082;2023-02-01T10:07:06;3.80;;;1.75;;
54241;SDS011;40156;51.080;17.082;2023-02-01T10:26:24;4.63;;;1.75;;
54241;SDS011;40156;51.080;17.082;2023-02-01T10:32:16;4.78;;;1.95;;
54241;SDS011;40156;51.080;17.082;2023-02-01T10:38:39;3.78;;;1.65;;
54241;SDS011;40156;51.080;17.082;2023-02-01T10:41:17;3.55;;;1.73;;
54241;SDS011;40156;51.080;17.082;2023-02-01T10:43:53;2.53;;;1.48;;
54241;SDS011;40156;51.080;17.082;2023-02-01T10:46:24;5.65;;;2.00;;
54241;SDS011;40156;51.080;17.082;2023-02-01T10:48:53;6.35;;;1.90;;
54241;SDS011;40156;51.080;17.082;2023-02-01T10:51:24;6.15;;;2.00;;
54241;SDS011;40156;51.080;17.082;2023-02-01T10:56:27;6.40;;;2.33;;
54241;SDS011;40156;51.080;17.082;2023-02-01T10:59:04;3.58;;;1.92;;
54241;SDS011;40156;51.080;17.082;2023-02-01T11:01:42;8.60;;;2.10;;
54241;SDS011;40156;51.080;17.082;2023-02-01T11:04:10;5.20;;;2.20;;
54241;SDS011;40156;51.080;17.082;2023-02-01T11:11:33;10.38;;;3.28;;
54241;SDS011;40156;51.080;17.082;2023-02-01T11:14:22;15.20;;;7.18;;
54241;SDS011;40156;51.080;17.082;2023-02-01T11:17:15;7.00;;;4.28;;
54241;SDS011;40156;51.080;17.082;2023-02-01T11:19:46;5.82;;;2.88;;
54241;SDS011;40156;51.080;17.082;2023-02-01T11:22:14;5.70;;;2.60;;
54241;SDS011;40156;51.080;17.082;2023-02-01T11:24:44;5.25;;;1.98;;
54241;SDS011;40156;51.080;17.082;2023-02-01T11:27:14;8.05;;;2.47;;
54241;SDS011;40156;51.080;17.082;2023-02-01T11:29:53;6.28;;;2.45;;
54241;SDS011;40156;51.080;17.082;2023-02-01T11:32:22;4.90;;;2.33;;
54241;SDS011;40156;51.080;17.082;2023-02-01T11:34:55;4.38;;;2.38;;
54241;SDS011;40156;51.080;17.082;2023-02-01T11:37:25;5.53;;;2.40;;
54241;SDS011;40156;51.080;17.082;2023-02-01T11:39:58;7.32;;;2.60;;
54241;SDS011;40156;51.080;17.082;2023-02-01T11:42:27;4.78;;;1.90;;
54241;SDS011;40156;51.080;17.082;2023-02-01T11:45:16;6.80;;;2.63;;
54241;SDS011;40156;51.080;17.082;2023-02-01T11:47:44;4.80;;;1.77;;
54241;SDS011;40156;51.080;17.082;2023-02-01T11:50:14;7.22;;;2.72;;
54241;SDS011;40156;51.080;17.082;2023-02-01T11:55:15;7.28;;;2.33;;
54241;SDS011;40156;51.080;17.082;2023-02-01T12:00:28;5.65;;;2.40;;
54241;SDS011;40156;51.080;17.082;2023-02-01T12:03:09;4.28;;;1.88;;
54241;SDS011;40156;51.080;17.082;2023-02-01T12:08:26;4.90;;;1.80;;
54241;SDS011;40156;51.080;17.082;2023-02-01T12:11:07;5.93;;;1.92;;
54241;SDS011;40156;51.080;17.082;2023-02-01T12:19:50;9.88;;;2.53;;
54241;SDS011;40156;51.080;17.082;2023-02-01T12:22:38;4.72;;;1.60;;
54241;SDS011;40156;51.080;17.082;2023-02-01T12:30:26;2.45;;;1.35;;
54241;SDS011;40156;51.080;17.082;2023-02-01T12:35:46;2.80;;;1.45;;
54241;SDS011;40156;51.080;17.082;2023-02-01T12:39:02;2.63;;;1.33;;
54241;SDS011;40156;51.080;17.082;2023-02-01T12:43:57;3.97;;;1.58;;
54241;SDS011;40156;51.080;17.082;2023-02-01T12:46:46;4.65;;;1.58;;
54241;SDS011;40156;51.080;17.082;2023-02-01T12:49:22;7.28;;;1.75;;
54241;SDS011;40156;51.080;17.082;2023-02-01T12:51:52;3.05;;;1.73;;
54241;SDS011;40156;51.080;17.082;2023-02-01T12:54:25;4.00;;;1.65;;
54241;SDS011;40156;51.080;17.082;2023-02-01T12:57:01;2.40;;;1.60;;
54241;SDS011;40156;51.080;17.082;2023-02-01T12:59:34;4.32;;;1.95;;
54241;SDS011;40156;51.080;17.082;2023-02-01T13:07:18;2.72;;;1.60;;
54241;SDS011;40156;51.080;17.082;2023-02-01T13:09:55;4.00;;;1.60;;
54241;SDS011;40156;51.080;17.082;2023-02-01T13:12:37;4.28;;;1.80;;
54241;SDS011;40156;51.080;17.082;2023-02-01T13:17:44;7.32;;;1.70;;
54241;SDS011;40156;51.080;17.082;2023-02-01T13:20:21;7.72;;;1.83;;
54241;SDS011;40156;51.080;17.082;2023-02-01T13:22:53;4.78;;;1.77;;
54241;SDS011;40156;51.080;17.082;2023-02-01T13:28:05;5.63;;;1.90;;
54241;SDS011;40156;51.080;17.082;2023-02-01T13:41:50;2.65;;;1.85;;
54241;SDS011;40156;51.080;17.082;2023-02-01T13:44:22;2.70;;;1.55;;
54241;SDS011;40156;51.080;17.082;2023-02-01T13:46:54;13.55;;;2.35;;
54241;SDS011;40156;51.080;17.082;2023-02-01T13:52:59;6.38;;;1.77;;
54241;SDS011;40156;51.080;17.082;2023-02-01T13:58:15;4.80;;;1.90;;
54241;SDS011;40156;51.080;17.082;2023-02-01T14:00:43;2.63;;;1.27;;
54241;SDS011;40156;51.080;17.082;2023-02-01T14:03:17;2.65;;;1.52;;
54241;SDS011;40156;51.080;17.082;2023-02-01T14:09:18;4.38;;;2.08;;
54241;SDS011;40156;51.080;17.082;2023-02-01T14:11:50;3.58;;;1.80;;
54241;SDS011;40156;51.080;17.082;2023-02-01T14:19:26;4.45;;;1.85;;
54241;SDS011;40156;51.080;17.082;2023-02-01T14:21:55;3.92;;;1.67;;
54241;SDS011;40156;51.080;17.082;2023-02-01T14:24:29;4.40;;;2.05;;
54241;SDS011;40156;51.080;17.082;2023-02-01T14:29:32;5.68;;;1.80;;
54241;SDS011;40156;51.080;17.082;2023-02-01T14:32:05;2.53;;;1.80;;
54241;SDS011;40156;51.080;17.082;2023-02-01T14:34:48;5.15;;;1.88;;
54241;SDS011;40156;51.080;17.082;2023-02-01T14:45:47;5.55;;;2.17;;
54241;SDS011;40156;51.080;17.082;2023-02-01T14:50:43;6.10;;;2.20;;
54241;SDS011;40156;51.080;17.082;2023-02-01T14:58:31;5.40;;;2.10;;
54241;SDS011;40156;51.080;17.082;2023-02-01T15:01:00;4.90;;;2.22;;
54241;SDS011;40156;51.080;17.082;2023-02-01T15:05:56;6.15;;;2.72;;
54241;SDS011;40156;51.080;17.082;2023-02-01T15:08:25;7.07;;;2.33;;
54241;SDS011;40156;51.080;17.082;2023-02-01T15:10:53;9.15;;;1.88;;
54241;SDS011;40156;51.080;17.082;2023-02-01T15:13:23;3.42;;;1.75;;
54241;SDS011;40156;51.080;17.082;2023-02-01T15:18:37;4.03;;;1.67;;
54241;SDS011;40156;51.080;17.082;2023-02-01T15:21:05;5.72;;;1.80;;
54241;SDS011;40156;51.080;17.082;2023-02-01T15:24:09;6.68;;;1.88;;
54241;SDS011;40156;51.080;17.082;2023-02-01T15:26:36;4.78;;;1.70;;
54241;SDS011;40156;51.080;17.082;2023-02-01T15:29:04;3.80;;;1.83;;
54241;SDS011;40156;51.080;17.082;2023-02-01T15:31:36;5.75;;;2.10;;
54241;SDS011;40156;51.080;17.082;2023-02-01T15:34:04;8.77;;;2.08;;
54241;SDS011;40156;51.080;17.082;2023-02-01T15:42:49;4.88;;;1.92;;
54241;SDS011;40156;51.080;17.082;2023-02-01T15:45:19;3.80;;;2.00;;
54241;SDS011;40156;51.080;17.082;2023-02-01T15:47:50;3.45;;;1.80;;
54241;SDS011;40156;51.080;17.082;2023-02-01T15:50:18;6.70;;;2.40;;
54241;SDS011;40156;51.080;17.082;2023-02-01T15:52:52;5.13;;;2.33;;
54241;SDS011;40156;51.080;17.082;2023-02-01T15:55:24;6.72;;;2.47;;
54241;SDS011;40156;51.080;17.082;2023-02-01T15:57:57;3.30;;;1.63;;
54241;SDS011;40156;51.080;17.082;2023-02-01T16:00:25;6.68;;;1.83;;
54241;SDS011;40156;51.080;17.082;2023-02-01T16:02:55;3.90;;;1.63;;
54241;SDS011;40156;51.080;17.082;2023-02-01T16:07:58;6.78;;;2.13;;
54241;SDS011;40156;51.080;17.082;2023-02-01T16:12:53;5.85;;;2.60;;
54241;SDS011;40156;51.080;17.082;2023-02-01T16:15:21;4.05;;;2.17;;
54241;SDS011;40156;51.080;17.082;2023-02-01T16:21:21;3.55;;;2.30;;
54241;SDS011;40156;51.080;17.082;2023-02-01T16:27:11;4.55;;;1.70;;
54241;SDS011;40156;51.080;17.082;2023-02-01T16:29:39;6.13;;;2.80;;
54241;SDS011;40156;51.080;17.082;2023-02-01T16:32:27;2.50;;;1.80;;
54241;SDS011;40156;51.080;17.082;2023-02-01T16:34:54;3.85;;;1.80;;
54241;SDS011;40156;51.080;17.082;2023-02-01T16:37:24;4.00;;;1.90;;
54241;SDS011;40156;51.080;17.082;2023-02-01T16:39:52;3.35;;;1.90;;
54241;SDS011;40156;51.080;17.082;2023-02-01T16:42:19;6.10;;;2.35;;
54241;SDS011;40156;51.080;17.082;2023-02-01T16:44:47;4.72;;;2.10;;
54241;SDS011;40156;51.080;17.082;2023-02-01T16:47:18;7.10;;;3.20;;
54241;SDS011;40156;51.080;17.082;2023-02-01T16:49:49;5.18;;;3.00;;
54241;SDS011;40156;51.080;17.082;2023-02-01T16:52:18;6.80;;;3.03;;
54241;SDS011;40156;51.080;17.082;2023-02-01T16:54:46;7.68;;;3.20;;
54241;SDS011;40156;51.080;17.082;2023-02-01T16:57:15;7.28;;;4.03;;
54241;SDS011;40156;51.080;17.082;2023-02-01T16:59:43;12.23;;;4.07;;
54241;SDS011;40156;51.080;17.082;2023-02-01T17:02:11;7.55;;;3.40;;
54241;SDS011;40156;51.080;17.082;2023-02-01T17:04:39;7.78;;;3.22;;
54241;SDS011;40156;51.080;17.082;2023-02-01T17:07:07;7.90;;;3.58;;
54241;SDS011;40156;51.080;17.082;2023-02-01T17:09:37;9.73;;;3.38;;
54241;SDS011;40156;51.080;17.082;2023-02-01T17:12:05;7.32;;;3.45;;
54241;SDS011;40156;51.080;17.082;2023-02-01T17:14:34;7.18;;;3.40;;
54241;SDS011;40156;51.080;17.082;2023-02-01T17:17:04;13.63;;;4.57;;
54241;SDS011;40156;51.080;17.082;2023-02-01T17:19:32;9.77;;;4.05;;
54241;SDS011;40156;51.080;17.082;2023-02-01T17:21:59;8.52;;;4.63;;
54241;SDS011;40156;51.080;17.082;2023-02-01T17:24:28;11.93;;;4.25;;
54241;SDS011;40156;51.080;17.082;2023-02-01T17:27:14;9.73;;;4.95;;
54241;SDS011;40156;51.080;17.082;2023-02-01T17:29:42;11.15;;;5.30;;
54241;SDS011;40156;51.080;17.082;2023-02-01T17:32:13;11.35;;;4.97;;
54241;SDS011;40156;51.080;17.082;2023-02-01T17:34:42;13.20;;;4.32;;
54241;SDS011;40156;51.080;17.082;2023-02-01T17:39:47;11.73;;;5.00;;
54241;SDS011;40156;51.080;17.082;2023-02-01T17:42:14;9.40;;;4.38;;
54241;SDS011;40156;51.080;17.082;2023-02-01T17:44:42;8.27;;;4.15;;
54241;SDS011;40156;51.080;17.082;2023-02-01T17:47:09;16.50;;;5.35;;
54241;SDS011;40156;51.080;17.082;2023-02-01T17:49:37;12.38;;;4.90;;
54241;SDS011;40156;51.080;17.082;2023-02-01T17:52:05;12.38;;;4.32;;
54241;SDS011;40156;51.080;17.082;2023-02-01T17:54:33;8.48;;;3.95;;
54241;SDS011;40156;51.080;17.082;2023-02-01T17:57:00;12.32;;;4.13;;
54241;SDS011;40156;51.080;17.082;2023-02-01T17:59:28;9.15;;;3.65;;
54241;SDS011;40156;51.080;17.082;2023-02-01T18:01:55;9.00;;;3.38;;
54241;SDS011;40156;51.080;17.082;2023-02-01T18:04:23;16.67;;;3.90;;
54241;SDS011;40156;51.080;17.082;2023-02-01T18:06:51;6.88;;;2.85;;
54241;SDS011;40156;51.080;17.082;2023-02-01T18:09:18;9.82;;;3.50;;
54241;SDS011;40156;51.080;17.082;2023-02-01T18:11:46;10.38;;;3.13;;
54241;SDS011;40156;51.080;17.082;2023-02-01T18:14:14;5.15;;;2.75;;